Time;durP1;ratioP1;P1;durP2;ratioP2;P2;SDS_P1;SDS_P2;PMS_P1;PMS_P2;Temp;Humidity;BMP_temperature;BMP_pressure;BME280_temperature;BME280_humidity;BME280_pressure;Samples;Min_cycle;Max_cycle;Signal;HPM_P1;HPM_P2
2022/03/31 15:14:31;;;;;;;7.18;1.48;;;;;;;27.01;28.27;100624.50;4892111;29;21084;-46
2022/03/31 15:17:02;;;;;;;3.83;1.30;;;;;;;27.04;28.05;100631.53;4759495;29;3612374;-44
2022/03/31 15:19:30;;;;;;;7.00;1.23;;;;;;;27.07;27.90;100642.91;4896363;29;20044;-45
2022/03/31 15:21:57;;;;;;;6.88;1.45;;;;;;;27.05;27.90;100659.63;4877320;29;20172;-45
2022/03/31 15:24:25;;;;;;;9.00;1.15;;;;;;;27.02;28.03;100657.00;4891590;29;20035;-45
2022/03/31 15:26:52;;;;;;;3.50;1.50;;;;;;;27.06;27.67;100670.13;4892546;29;20103;-50
2022/03/31 15:29:20;;;;;;;4.70;1.15;;;;;;;27.02;27.72;100662.25;4891282;29;20037;-44
2022/03/31 15:31:49;;;;;;;5.13;1.48;;;;;;;27.03;27.67;100658.75;4893519;29;20386;-47
2022/03/31 15:34:18;;;;;;;3.53;1.02;;;;;;;27.05;27.81;100672.78;4897013;29;20036;-44
2022/03/31 15:36:47;;;;;;;4.25;1.63;;;;;;;27.05;27.75;100676.28;4899109;29;20025;-52
2022/03/31 15:39:15;;;;;;;3.28;1.08;;;;;;;27.08;27.84;100686.78;4885115;29;20295;-46
2022/03/31 15:41:44;;;;;;;3.60;1.20;;;;;;;27.09;27.65;100700.81;4901453;29;20024;-49
2022/03/31 15:44:13;;;;;;;7.53;1.45;;;;;;;27.11;27.67;100692.06;4901685;29;20036;-55
2022/03/31 15:47:06;;;;;;;7.35;1.30;;;;;;;27.03;27.78;100690.34;4901941;29;20503;-47
2022/03/31 15:49:34;;;;;;;7.97;1.25;;;;;;;27.01;27.51;100692.94;4885630;29;20028;-46
2022/03/31 15:52:03;;;;;;;6.63;1.27;;;;;;;26.98;27.67;100698.22;4901849;29;20538;-46
2022/03/31 15:54:32;;;;;;;7.50;1.15;;;;;;;26.89;27.88;100699.13;4901855;29;20064;-45
2022/03/31 15:57:00;;;;;;;3.00;1.00;;;;;;;26.86;28.00;100701.81;4902206;29;20033;-51
2022/03/31 15:59:31;;;;;;;9.07;1.58;;;;;;;26.86;27.65;100709.69;4901331;29;20036;-48
2022/03/31 16:02:00;;;;;;;6.25;1.23;;;;;;;26.82;27.65;100715.84;4901650;29;20056;-44
2022/03/31 16:04:28;;;;;;;4.72;1.17;;;;;;;26.81;27.67;100716.72;4900355;29;20028;-45
2022/03/31 16:06:57;;;;;;;4.82;0.80;;;;;;;26.81;27.80;100738.63;4901501;29;20378;-44
2022/03/31 16:09:27;;;;;;;4.43;1.20;;;;;;;26.82;27.51;100732.50;4884687;29;20036;-45
2022/03/31 16:11:57;;;;;;;6.57;1.10;;;;;;;26.87;27.62;100731.63;4901682;29;20486;-45
2022/03/31 16:14:26;;;;;;;3.17;1.00;;;;;;;26.84;27.75;100733.38;4901387;29;20044;-48
2022/03/31 16:16:54;;;;;;;2.25;1.00;;;;;;;26.87;27.77;100736.88;4884730;29;20028;-44
2022/03/31 16:19:22;;;;;;;3.17;0.75;;;;;;;26.83;27.56;100736.03;4901878;29;20040;-53
2022/03/31 16:21:52;;;;;;;3.50;0.80;;;;;;;26.83;27.25;100736.88;4901314;29;20029;-51
2022/03/31 16:24:21;;;;;;;5.75;1.42;;;;;;;26.88;27.33;100747.41;4901089;29;20025;-44
2022/03/31 16:26:49;;;;;;;6.05;1.48;;;;;;;26.84;27.64;100804.44;4901557;29;20120;-45
2022/03/31 16:29:18;;;;;;;2.10;0.85;;;;;;;26.85;27.55;100810.59;4900432;29;20458;-45
2022/03/31 16:31:46;;;;;;;1.67;0.60;;;;;;;26.77;27.58;100818.47;4901048;29;20052;-51
2022/03/31 16:34:15;;;;;;;2.97;0.85;;;;;;;26.69;27.78;100807.94;4901136;29;20040;-43
2022/03/31 16:36:43;;;;;;;3.15;1.00;;;;;;;26.73;27.65;100811.44;4900690;29;20037;-49
2022/03/31 16:39:15;;;;;;;2.88;0.88;;;;;;;26.69;27.23;100833.38;4900599;29;20024;-49
2022/03/31 16:41:45;;;;;;;3.15;0.60;;;;;;;26.71;27.48;100860.56;4885153;29;20077;-47
2022/03/31 16:44:16;;;;;;;2.00;0.55;;;;;;;26.81;26.90;100866.72;4899741;29;20031;-49
2022/03/31 16:46:45;;;;;;;1.85;0.60;;;;;;;26.81;27.09;100870.22;4900810;29;20115;-47
2022/03/31 16:49:14;;;;;;;1.65;0.60;;;;;;;26.76;27.62;100866.72;4899690;29;20120;-50
2022/03/31 16:51:43;;;;;;;4.60;0.70;;;;;;;26.69;27.48;100843.91;4900856;29;20033;-52
2022/03/31 16:54:15;;;;;;;2.88;0.93;;;;;;;26.68;27.36;100847.41;4900852;29;20029;-49
2022/03/31 16:56:45;;;;;;;1.65;0.65;;;;;;;26.64;27.77;100841.28;4883980;29;20471;-47
2022/03/31 16:59:14;;;;;;;2.05;0.60;;;;;;;26.67;27.95;100835.13;4900013;29;20507;-48
2022/03/31 17:01:43;;;;;;;3.58;0.80;;;;;;;26.66;27.59;100836.00;4900850;29;20116;-47
2022/03/31 17:04:12;;;;;;;1.02;0.50;;;;;;;26.71;27.63;100836.88;4900520;29;20093;-46
2022/03/31 17:06:41;;;;;;;2.78;0.88;;;;;;;26.71;27.57;100839.50;4901096;29;20057;-46
2022/03/31 17:09:09;;;;;;;1.77;0.65;;;;;;;26.68;27.75;100842.13;4900379;29;20036;-49
2022/03/31 17:11:39;;;;;;;1.67;0.93;;;;;;;26.68;27.83;100853.56;4900731;29;20497;-52
2022/03/31 17:14:08;;;;;;;2.25;0.50;;;;;;;26.64;27.81;100849.16;4900531;29;20043;-50
2022/03/31 17:16:36;;;;;;;1.33;0.50;;;;;;;26.65;27.88;100852.66;4900163;29;20486;-51
2022/03/31 17:19:05;;;;;;;1.65;0.60;;;;;;;26.67;27.46;100859.69;4900203;29;20072;-48
2022/03/31 17:21:34;;;;;;;1.75;0.88;;;;;;;26.71;27.54;100867.59;4900156;29;20029;-48
2022/03/31 17:24:03;;;;;;;3.90;0.70;;;;;;;26.66;27.89;100865.81;4900296;29;20032;-47
2022/03/31 17:26:31;;;;;;;3.05;0.70;;;;;;;26.66;27.65;100862.31;4900406;29;20036;-46
2022/03/31 17:29:00;;;;;;;2.05;0.55;;;;;;;26.62;27.49;100856.16;4899977;29;20083;-46
2022/03/31 17:31:29;;;;;;;0.68;0.43;;;;;;;26.66;27.64;100863.19;4899953;29;20033;-47
2022/03/31 17:33:57;;;;;;;1.10;0.50;;;;;;;26.66;27.77;100863.19;4900066;29;20025;-51
2022/03/31 17:36:26;;;;;;;1.52;0.47;;;;;;;26.65;27.80;100866.69;4900051;29;20119;-45
2022/03/31 17:38:55;;;;;;;2.47;0.50;;;;;;;26.69;27.76;100867.56;4883378;29;20043;-44
2022/03/31 17:41:23;;;;;;;1.27;0.70;;;;;;;26.65;27.62;100877.22;4899586;29;20025;-46
2022/03/31 17:43:52;;;;;;;2.90;0.52;;;;;;;26.66;27.66;100883.34;4899863;29;20033;-53
2022/03/31 17:46:20;;;;;;;0.50;0.35;;;;;;;26.64;27.79;100880.75;4899703;29;20447;-52
2022/03/31 17:48:49;;;;;;;1.65;0.73;;;;;;;26.65;27.74;100885.13;4899727;29;20546;-47
2022/03/31 17:51:17;;;;;;;0.75;0.40;;;;;;;26.64;27.65;100893.88;4899229;29;20043;-48
2022/03/31 17:53:46;;;;;;;2.33;0.60;;;;;;;26.66;27.82;100899.13;4899876;29;20103;-46
2022/03/31 17:56:14;;;;;;;2.95;0.60;;;;;;;26.67;27.51;100898.25;4899704;29;20062;-47
2022/03/31 17:58:43;;;;;;;3.55;0.93;;;;;;;26.68;27.66;100907.91;4899480;29;20020;-47
2022/03/31 18:01:11;;;;;;;1.38;0.57;;;;;;;26.68;27.51;100910.56;4899496;29;20029;-53
2022/03/31 18:03:40;;;;;;;2.22;0.70;;;;;;;26.71;27.93;100914.97;4899278;29;20021;-44
2022/03/31 18:06:09;;;;;;;6.20;0.82;;;;;;;26.71;27.71;100925.47;4899505;29;20043;-45
2022/03/31 18:08:37;;;;;;;11.25;0.70;;;;;;;26.71;27.68;100930.75;4899096;29;20036;-51
2022/03/31 18:11:06;;;;;;;2.85;0.70;;;;;;;26.65;27.86;100929.84;4899481;29;20032;-44
2022/03/31 18:13:34;;;;;;;1.20;0.40;;;;;;;26.67;27.91;100929.84;4899487;29;20032;-44
2022/03/31 18:16:04;;;;;;;3.00;0.73;;;;;;;26.68;27.69;100939.50;4899323;29;20120;-44
2022/03/31 18:18:34;;;;;;;1.77;0.40;;;;;;;26.66;27.80;100935.97;4898828;29;20509;-47
2022/03/31 18:21:02;;;;;;;1.52;0.45;;;;;;;26.56;27.85;100942.97;4899232;29;20028;-45
2022/03/31 18:23:31;;;;;;;1.58;0.60;;;;;;;26.51;27.69;100939.47;4899227;29;20020;-48
2022/03/31 18:26:00;;;;;;;0.95;0.60;;;;;;;26.53;27.55;100943.00;4899062;29;20032;-44
2022/03/31 18:28:28;;;;;;;1.73;0.73;;;;;;;26.53;27.59;100949.13;4882040;29;20040;-44
2022/03/31 18:34:07;;;;;;;2.78;0.85;;;;;;;26.63;27.20;100946.53;4895721;29;20059;-47
2022/03/31 18:36:32;;;;;;;1.92;0.60;;;;;;;26.63;27.55;100954.41;4898625;29;20039;-45
2022/03/31 18:39:01;;;;;;;1.52;0.75;;;;;;;26.60;27.51;100962.31;4898414;29;20521;-44
2022/03/31 18:41:30;;;;;;;1.13;0.60;;;;;;;26.61;27.72;100967.56;4898567;29;20033;-47
2022/03/31 18:44:01;;;;;;;2.85;0.60;;;;;;;26.62;27.51;100974.56;4898996;29;20103;-44
2022/03/31 18:46:32;;;;;;;4.00;0.75;;;;;;;26.61;27.46;100982.47;4899171;29;20036;-45
2022/03/31 18:49:05;;;;;;;2.08;0.80;;;;;;;26.63;27.55;100991.25;4898737;29;20024;-44
2022/03/31 18:51:35;;;;;;;2.90;0.70;;;;;;;26.63;27.31;100993.88;4898708;29;20029;-46
2022/03/31 18:54:05;;;;;;;2.67;0.47;;;;;;;26.64;27.73;101008.81;4898504;29;20037;-43
2022/03/31 18:56:33;;;;;;;3.95;0.65;;;;;;;26.60;27.38;101015.78;4898481;29;20435;-46
2022/03/31 18:59:02;;;;;;;2.50;0.88;;;;;;;26.62;27.46;101021.06;4897509;29;20056;-46
2022/03/31 19:01:31;;;;;;;2.70;0.80;;;;;;;26.62;27.54;101032.47;4898251;29;20115;-44
2022/03/31 19:04:00;;;;;;;1.45;0.80;;;;;;;26.63;27.80;101043.88;4898086;29;20108;-45
2022/03/31 19:07:15;;;;;;;2.00;0.60;;;;;;;26.61;27.63;101061.41;4898452;29;20104;-44
2022/03/31 19:09:15;;;;;;;1.92;0.65;;;;;;;26.60;27.57;101057.88;4894696;29;20049;-44
2022/03/31 19:11:44;;;;;;;1.35;0.63;;;;;;;26.58;27.69;101077.19;4898045;29;20069;-45
2022/03/31 19:14:13;;;;;;;1.92;0.65;;;;;;;26.60;27.37;101086.81;4897520;29;20101;-46
2022/03/31 19:16:41;;;;;;;2.33;1.02;;;;;;;26.57;27.49;101078.91;4898045;29;20052;-46
2022/03/31 19:19:10;;;;;;;3.10;1.02;;;;;;;26.54;27.58;101082.41;4898429;29;20040;-52
2022/03/31 19:21:39;;;;;;;5.47;0.88;;;;;;;26.56;27.44;101087.69;4898304;29;20465;-52
2022/03/31 19:24:09;;;;;;;1.98;0.82;;;;;;;26.53;27.39;101091.19;4897873;29;20029;-45
2022/03/31 19:26:39;;;;;;;1.73;0.90;;;;;;;26.53;27.46;101106.97;4898271;29;20029;-46
2022/03/31 19:29:08;;;;;;;1.67;0.75;;;;;;;26.63;27.50;101128.06;4898082;29;20093;-43
2022/03/31 19:31:37;;;;;;;1.60;0.95;;;;;;;26.60;27.52;101155.22;4898178;29;20364;-44
2022/03/31 19:34:06;;;;;;;2.15;1.02;;;;;;;26.62;27.54;101171.91;4898162;29;20055;-44
2022/03/31 19:36:35;;;;;;;2.28;0.70;;;;;;;26.58;27.53;101178.03;4898028;29;20036;-45
2022/03/31 19:39:03;;;;;;;5.25;0.80;;;;;;;26.57;27.59;101162.25;4898127;29;20028;-47
2022/03/31 19:41:32;;;;;;;3.28;1.08;;;;;;;26.52;27.91;101164.84;4898201;29;20028;-48
2022/03/31 19:44:01;;;;;;;2.38;0.80;;;;;;;26.54;27.46;101160.47;4897843;29;20028;-46
2022/03/31 19:46:29;;;;;;;3.00;0.73;;;;;;;26.59;27.66;101166.63;4897789;29;20044;-45
2022/03/31 19:48:59;;;;;;;2.03;0.80;;;;;;;26.59;27.50;101164.00;4897763;29;20055;-45
2022/03/31 19:51:28;;;;;;;2.03;0.55;;;;;;;26.61;27.56;101164.88;4898448;29;20032;-43
2022/03/31 19:53:57;;;;;;;2.80;1.00;;;;;;;26.57;27.62;101160.47;4898551;29;20029;-45
2022/03/31 19:56:25;;;;;;;5.03;0.88;;;;;;;26.58;27.71;101172.75;4898308;29;20047;-44
2022/03/31 19:58:54;;;;;;;3.05;0.70;;;;;;;26.62;27.67;101168.41;4898189;29;20051;-45
2022/03/31 20:01:22;;;;;;;3.33;0.63;;;;;;;26.60;27.30;101165.75;4897731;29;20044;-50
2022/03/31 20:03:52;;;;;;;3.15;0.60;;;;;;;26.60;27.51;101172.78;4897656;29;20033;-48
2022/03/31 20:06:20;;;;;;;2.78;1.17;;;;;;;26.61;27.35;101171.91;4898017;29;20088;-45
2022/03/31 20:08:49;;;;;;;2.05;0.65;;;;;;;26.58;27.46;101180.66;4880907;29;20032;-45
2022/03/31 20:11:16;;;;;;;1.95;0.70;;;;;;;26.62;27.45;101205.25;4898234;29;20021;-49
2022/03/31 20:13:45;;;;;;;0.98;0.50;;;;;;;26.62;27.52;101202.63;4898041;29;20043;-46
2022/03/31 20:16:13;;;;;;;0.88;0.52;;;;;;;26.64;27.76;101208.78;4897886;29;20032;-45
2022/03/31 20:18:42;;;;;;;4.47;0.77;;;;;;;26.64;27.29;101208.78;4865545;29;20143;-47
2022/03/31 20:21:10;;;;;;;3.55;0.82;;;;;;;26.61;27.67;101211.38;4897866;29;20104;-45
2022/03/31 20:23:41;;;;;;;1.65;0.70;;;;;;;26.62;27.56;101215.78;4901271;29;20065;-46
2022/03/31 20:26:10;;;;;;;2.65;0.95;;;;;;;26.57;27.59;101213.09;4901314;29;20043;-49
2022/03/31 20:28:39;;;;;;;2.38;1.10;;;;;;;26.59;27.61;101211.34;4884443;29;20127;-45
2022/03/31 20:31:08;;;;;;;2.65;1.10;;;;;;;26.60;27.60;101217.50;4901093;29;20040;-47
2022/03/31 20:33:37;;;;;;;1.08;0.60;;;;;;;26.63;27.78;101207.00;4884655;29;20029;-46
2022/03/31 20:36:06;;;;;;;3.90;0.75;;;;;;;26.60;27.53;101218.38;4901228;29;20024;-45
2022/03/31 20:38:35;;;;;;;2.00;0.98;;;;;;;26.61;27.68;101220.16;4900837;29;20040;-46
2022/03/31 20:41:03;;;;;;;3.60;0.68;;;;;;;26.60;27.60;101225.41;4901154;29;20060;-45
2022/03/31 20:43:32;;;;;;;1.25;0.55;;;;;;;26.55;27.74;101230.66;4900545;29;20037;-45
2022/03/31 20:46:00;;;;;;;2.63;0.80;;;;;;;26.57;27.54;101234.16;4900732;29;20036;-44
2022/03/31 20:48:29;;;;;;;2.85;0.70;;;;;;;26.64;27.62;101235.09;4900646;29;20036;-46
2022/03/31 20:50:59;;;;;;;1.67;0.63;;;;;;;26.65;27.64;101235.09;4900867;29;20115;-48
2022/03/31 20:53:28;;;;;;;1.70;0.70;;;;;;;26.62;27.62;101234.19;4900323;29;20024;-45
2022/03/31 20:55:57;;;;;;;1.30;0.77;;;;;;;26.65;27.41;101234.19;4900663;29;20116;-50
2022/03/31 20:58:26;;;;;;;2.80;0.70;;;;;;;26.67;27.35;101240.34;4900717;29;20391;-44
2022/03/31 21:00:54;;;;;;;2.72;0.90;;;;;;;26.65;27.28;101231.56;4900662;29;20060;-47
2022/03/31 21:03:23;;;;;;;2.70;0.52;;;;;;;26.61;27.52;101237.69;4900629;29;20028;-44
2022/03/31 21:05:52;;;;;;;2.58;0.70;;;;;;;26.57;27.76;101244.66;4900627;29;20036;-46
2022/03/31 21:08:20;;;;;;;3.38;0.80;;;;;;;26.58;27.61;101254.31;4899821;29;20040;-46
2022/03/31 21:10:49;;;;;;;1.88;0.90;;;;;;;26.54;27.47;101256.06;4900517;29;20101;-49
2022/03/31 21:13:18;;;;;;;2.67;0.90;;;;;;;26.59;27.53;101260.47;4900382;29;20111;-47
2022/03/31 21:15:47;;;;;;;2.63;0.93;;;;;;;26.53;27.54;101280.59;4900462;29;20440;-45
2022/03/31 21:18:15;;;;;;;1.80;0.63;;;;;;;26.58;27.61;101298.19;4900012;29;20459;-54
2022/03/31 21:20:45;;;;;;;1.65;0.73;;;;;;;26.61;27.40;101303.47;4900375;29;20116;-49
2022/03/31 21:23:14;;;;;;;2.92;0.60;;;;;;;26.60;27.50;101281.53;4900126;29;20119;-50
2022/03/31 21:25:43;;;;;;;1.23;0.65;;;;;;;26.49;27.50;101259.53;4900125;29;20067;-46
2022/03/31 21:28:11;;;;;;;2.00;0.80;;;;;;;26.53;27.52;101264.81;4900223;29;20043;-49
2022/03/31 21:30:40;;;;;;;4.90;1.08;;;;;;;26.51;27.60;101263.06;4900169;29;20088;-47
2022/03/31 21:33:09;;;;;;;1.35;0.80;;;;;;;26.45;27.46;101261.28;4899548;29;20092;-48
2022/03/31 21:35:37;;;;;;;1.77;0.90;;;;;;;26.45;27.42;101252.47;4899597;29;20130;-47
2022/03/31 21:38:06;;;;;;;0.80;0.63;;;;;;;26.48;27.75;101260.41;4899450;29;20036;-45
2022/03/31 21:40:40;;;;;;;3.03;0.75;;;;;;;26.45;27.57;101263.00;4899750;29;20048;-46
2022/03/31 21:43:10;;;;;;;2.25;1.02;;;;;;;26.48;27.66;101266.53;4899945;29;20115;-49
2022/03/31 21:45:39;;;;;;;1.75;0.63;;;;;;;26.41;27.77;101263.84;4899424;29;20033;-47
2022/03/31 21:48:08;;;;;;;1.45;0.80;;;;;;;26.39;27.66;101262.09;4899440;29;20419;-45
2022/03/31 21:50:37;;;;;;;2.03;0.85;;;;;;;26.39;27.61;101263.84;4899928;29;20447;-50
2022/03/31 21:53:06;;;;;;;1.00;0.85;;;;;;;26.34;27.92;101266.44;4899653;29;20040;-46
2022/03/31 21:55:34;;;;;;;1.42;0.60;;;;;;;26.32;27.79;101259.41;4899568;29;20040;-50
2022/03/31 21:58:03;;;;;;;1.88;0.80;;;;;;;26.40;27.82;101262.97;4899441;29;20474;-51
2022/03/31 22:00:42;;;;;;;1.00;0.50;;;;;;;26.33;27.85;101256.78;4899513;29;20033;-46
2022/03/31 22:03:12;;;;;;;1.35;0.77;;;;;;;26.20;27.63;101261.06;4899664;29;20115;-50
2022/03/31 22:06:01;;;;;;;0.90;0.60;;;;;;;26.29;27.81;101262.03;4899673;29;20080;-47
2022/03/31 22:12:01;;;;;;;1.77;0.80;;;;;;;26.27;27.67;101262.00;4891747;29;20041;-49
2022/03/31 22:14:20;;;;;;;1.65;0.82;;;;;;;26.19;27.73;101269.81;4893605;29;20045;-49
2022/03/31 22:16:50;;;;;;;1.38;0.70;;;;;;;26.18;27.50;101267.19;4898905;29;20041;-47
2022/03/31 22:19:19;;;;;;;2.13;0.68;;;;;;;26.20;27.79;101268.09;4882678;29;20084;-45
2022/03/31 22:21:50;;;;;;;1.52;0.73;;;;;;;26.23;27.83;101276.88;4899301;29;20047;-48
2022/03/31 22:24:20;;;;;;;1.90;0.50;;;;;;;26.20;27.58;101273.34;4898843;29;20088;-48
2022/03/31 22:26:49;;;;;;;1.67;0.50;;;;;;;26.21;27.77;101280.38;4899320;29;20103;-48
2022/03/31 22:29:18;;;;;;;3.08;0.88;;;;;;;26.14;27.87;101289.06;4899008;29;20029;-50
2022/03/31 22:31:48;;;;;;;2.63;0.65;;;;;;;26.12;27.79;101278.53;4899151;29;20028;-49
2022/03/31 22:34:19;;;;;;;2.13;0.70;;;;;;;26.10;28.04;101285.50;4899070;29;20364;-47
2022/03/31 22:36:48;;;;;;;1.00;0.55;;;;;;;26.10;27.95;101288.13;4898521;29;20028;-47
2022/03/31 22:39:17;;;;;;;1.95;0.55;;;;;;;26.21;27.87;101291.75;4898902;29;20093;-45
2022/03/31 22:41:46;;;;;;;1.20;0.80;;;;;;;26.23;27.36;101286.50;4882266;29;20107;-45
2022/03/31 22:44:15;;;;;;;1.50;0.68;;;;;;;26.14;27.83;101289.97;4898901;29;20024;-45
2022/03/31 22:46:44;;;;;;;0.93;0.40;;;;;;;26.18;27.61;101293.50;4897836;29;20032;-46
2022/03/31 22:49:13;;;;;;;1.27;0.65;;;;;;;26.18;27.63;101289.09;4898750;29;20474;-51
2022/03/31 22:51:42;;;;;;;1.00;0.60;;;;;;;26.09;27.46;101286.38;4898868;29;20044;-50
2022/03/31 22:54:11;;;;;;;2.13;0.60;;;;;;;26.06;27.66;101297.72;4898568;29;20029;-46
2022/03/31 22:56:41;;;;;;;1.52;0.73;;;;;;;26.07;27.69;101302.09;4898576;29;20124;-49
2022/03/31 22:59:09;;;;;;;2.83;0.68;;;;;;;26.05;27.76;101302.97;4898482;29;20044;-47
2022/03/31 23:01:38;;;;;;;1.25;0.45;;;;;;;26.04;27.52;101311.72;4898417;29;20402;-46
2022/03/31 23:04:07;;;;;;;1.25;0.57;;;;;;;26.04;27.72;101314.34;4898821;29;20029;-45
2022/03/31 23:06:36;;;;;;;1.02;0.40;;;;;;;25.98;27.92;101317.81;4898341;29;20089;-46
2022/03/31 23:09:06;;;;;;;1.90;0.80;;;;;;;26.01;27.70;101320.47;4881755;29;20039;-48
2022/03/31 23:11:35;;;;;;;0.95;0.40;;;;;;;25.97;28.08;101317.81;4898228;29;20482;-52
2022/03/31 23:14:04;;;;;;;1.42;0.70;;;;;;;25.96;27.79;101316.03;4898353;29;20056;-49
2022/03/31 23:16:33;;;;;;;3.22;0.90;;;;;;;26.07;27.58;101319.66;4898424;29;20028;-46
2022/03/31 23:19:01;;;;;;;1.95;0.75;;;;;;;26.06;27.60;101329.25;4897893;29;20061;-49
2022/03/31 23:21:30;;;;;;;1.80;0.73;;;;;;;26.07;27.39;101331.03;4898466;29;20039;-46
2022/03/31 23:23:59;;;;;;;1.13;0.60;;;;;;;26.02;27.67;101331.84;4898255;29;20028;-46
2022/03/31 23:26:27;;;;;;;2.50;0.80;;;;;;;25.96;27.73;101330.03;4898224;29;20025;-45
2022/03/31 23:28:56;;;;;;;2.90;1.20;;;;;;;26.02;27.63;101331.84;4881287;29;20068;-47
2022/03/31 23:31:24;;;;;;;1.60;0.65;;;;;;;25.97;27.74;101326.56;4898230;29;20069;-45
2022/03/31 23:33:53;;;;;;;2.33;0.80;;;;;;;25.99;27.73;101326.56;4881231;29;20035;-51
2022/03/31 23:36:21;;;;;;;1.80;0.57;;;;;;;25.96;27.52;101329.19;4898161;29;20028;-49
2022/03/31 23:38:50;;;;;;;1.10;0.52;;;;;;;25.97;27.71;101333.56;4897989;29;20470;-45
2022/03/31 23:41:18;;;;;;;1.48;0.60;;;;;;;25.90;27.83;101333.50;4897581;29;20123;-50
2022/03/31 23:43:47;;;;;;;1.15;0.52;;;;;;;25.85;28.00;101327.31;4898109;29;20029;-45
2022/03/31 23:46:15;;;;;;;3.17;0.80;;;;;;;25.88;27.76;101332.59;4897924;29;20028;-49
2022/03/31 23:48:45;;;;;;;1.83;0.70;;;;;;;25.97;27.64;101331.81;4897414;29;20041;-48
2022/03/31 23:51:13;;;;;;;1.30;0.60;;;;;;;25.93;27.41;101343.16;4880909;29;20500;-47
2022/03/31 23:53:42;;;;;;;1.40;0.68;;;;;;;26.01;27.51;101340.59;4881532;29;20033;-46
2022/03/31 23:56:11;;;;;;;2.30;0.85;;;;;;;25.94;27.39;101339.66;4898228;29;20112;-46
2022/03/31 23:58:39;;;;;;;2.30;0.90;;;;;;;25.88;27.70;101342.25;4901163;29;20088;-45
